Time;durP1;ratioP1;P1;durP2;ratioP2;P2;SDS_P1;SDS_P2;PMS_P1;PMS_P2;Temp;Humidity;BMP_temperature;BMP_pressure;BME280_temperature;BME280_humidity;BME280_pressure;Samples;Min_cycle;Max_cycle;Signal;HPM_P1;HPM_P2
2023/09/10 00:01:14;;;;;;;3.78;2.70;;;19.90;89.90;;;;;;5079382;28;20031;-77
2023/09/10 00:03:39;;;;;;;3.00;2.40;;;19.80;89.80;;;;;;5114140;28;20119;-77
2023/09/10 00:06:06;;;;;;;3.10;2.50;;;19.90;89.90;;;;;;5079282;28;20043;-78
2023/09/10 00:08:34;;;;;;;4.28;2.80;;;19.80;89.80;;;;;;5095870;28;20039;-78
2023/09/10 00:11:00;;;;;;;3.50;2.40;;;19.80;89.80;;;;;;5096266;28;20059;-78
2023/09/10 00:13:26;;;;;;;3.60;2.60;;;19.80;89.80;;;;;;5114473;28;20042;-78
2023/09/10 00:15:53;;;;;;;5.38;3.13;;;19.80;89.80;;;;;;5114663;28;20334;-78
2023/09/10 00:18:19;;;;;;;3.30;2.53;;;19.80;89.80;;;;;;5114432;28;20042;-78
2023/09/10 00:20:45;;;;;;;2.72;2.20;;;19.80;89.80;;;;;;5114648;28;20146;-78
2023/09/10 00:23:12;;;;;;;3.05;2.22;;;19.80;89.90;;;;;;5113814;28;20370;-78
2023/09/10 00:25:38;;;;;;;3.70;2.50;;;19.80;89.90;;;;;;5113990;28;20046;-78
2023/09/10 00:28:04;;;;;;;3.35;2.67;;;19.70;89.90;;;;;;5113971;28;20039;-78
2023/09/10 00:30:30;;;;;;;3.20;2.40;;;19.80;89.90;;;;;;5095426;28;20036;-78
2023/09/10 00:32:55;;;;;;;3.78;2.50;;;19.80;89.90;;;;;;5095636;28;20090;-78
2023/09/10 00:35:21;;;;;;;2.83;2.15;;;19.70;89.90;;;;;;5095448;28;20058;-78
2023/09/10 00:37:47;;;;;;;3.08;2.42;;;19.70;90.00;;;;;;5113531;28;20054;-78
2023/09/10 00:40:13;;;;;;;3.53;2.63;;;19.70;89.90;;;;;;5095396;28;20050;-78
2023/09/10 00:42:41;;;;;;;3.85;2.88;;;19.70;89.90;;;;;;5095446;28;20032;-78
2023/09/10 00:45:09;;;;;;;3.60;2.60;;;19.70;89.90;;;;;;5095229;28;20039;-78
2023/09/10 00:47:37;;;;;;;3.40;2.60;;;19.70;89.90;;;;;;5113537;28;20048;-78
2023/09/10 00:50:05;;;;;;;3.10;2.40;;;19.80;89.90;;;;;;5095426;28;20039;-78
2023/09/10 00:52:31;;;;;;;3.40;2.60;;;19.80;89.80;;;;;;5095050;28;20043;-78
2023/09/10 00:54:58;;;;;;;3.10;2.47;;;19.80;89.70;;;;;;5113497;28;20126;-78
2023/09/10 00:57:25;;;;;;;3.50;2.83;;;19.80;90.10;;;;;;5078492;28;20047;-78
2023/09/10 00:59:52;;;;;;;3.60;2.80;;;19.80;89.70;;;;;;5113402;28;20043;-78
2023/09/10 01:02:18;;;;;;;3.13;2.40;;;19.80;89.70;;;;;;5095259;28;20042;-77
2023/09/10 01:04:44;;;;;;;3.80;2.50;;;19.70;89.60;;;;;;5094880;28;20043;-78
2023/09/10 01:07:10;;;;;;;3.13;2.50;;;19.80;89.70;;;;;;5113170;28;20127;-78
2023/09/10 01:09:36;;;;;;;3.10;2.50;;;19.80;89.70;;;;;;5078119;28;20040;-78
2023/09/10 01:12:29;;;;;;;4.10;2.60;;;19.80;89.70;;;;;;5094986;28;20051;-78
2023/09/10 01:15:07;;;;;;;3.33;2.55;;;19.70;89.60;;;;;;5113063;28;20038;-78
2023/09/10 01:18:00;;;;;;;3.00;2.70;;;19.80;89.80;;;;;;5113063;28;20051;-78
2023/09/10 01:20:59;;;;;;;3.08;2.42;;;19.80;89.70;;;;;;5097750;28;20464;-78
2023/09/10 01:23:50;;;;;;;3.92;2.95;;;19.80;89.70;;;;;;5113217;28;20039;-78
2023/09/10 01:26:17;;;;;;;2.45;2.10;;;19.80;89.60;;;;;;5094688;28;20089;-78
2023/09/10 01:28:42;;;;;;;2.78;2.13;;;19.80;89.50;;;;;;5094924;28;20044;-78
2023/09/10 01:31:08;;;;;;;3.22;2.38;;;19.80;89.50;;;;;;5077759;28;20038;-78
2023/09/10 01:33:41;;;;;;;3.33;2.38;;;19.80;89.50;;;;;;5094671;28;20138;-78
2023/09/10 01:36:19;;;;;;;4.35;3.22;;;19.80;89.40;;;;;;5112582;28;20093;-78
2023/09/10 01:39:07;;;;;;;4.90;3.35;;;19.80;89.40;;;;;;5094811;28;20492;-78
2023/09/10 01:41:34;;;;;;;3.20;2.60;;;19.90;89.40;;;;;;5094477;28;20118;-79
2023/09/10 01:44:02;;;;;;;4.50;2.67;;;19.80;89.40;;;;;;5095218;28;20036;-78
2023/09/10 01:46:29;;;;;;;3.38;2.65;;;19.80;89.70;;;;;;5094452;28;20493;-78
2023/09/10 01:48:55;;;;;;;3.17;2.65;;;19.80;89.30;;;;;;5112698;28;20093;-78
2023/09/10 01:51:20;;;;;;;3.25;2.45;;;19.90;89.40;;;;;;5094813;28;20039;-78
2023/09/10 01:53:46;;;;;;;3.60;2.78;;;19.90;89.40;;;;;;5077443;28;20047;-78
2023/09/10 01:56:12;;;;;;;3.00;2.40;;;19.90;89.40;;;;;;5077357;28;20066;-78
2023/09/10 01:58:38;;;;;;;3.15;2.40;;;19.90;89.40;;;;;;5094197;28;20050;-78
2023/09/10 02:01:06;;;;;;;3.97;2.90;;;19.90;89.40;;;;;;5094140;28;20039;-79
2023/09/10 02:03:32;;;;;;;4.00;2.80;;;19.90;89.40;;;;;;5112534;28;20038;-78
2023/09/10 02:06:00;;;;;;;3.70;2.70;;;19.90;89.40;;;;;;5094828;28;20474;-78
2023/09/10 02:08:25;;;;;;;3.80;2.80;;;19.90;89.40;;;;;;5112411;28;20047;-78
2023/09/10 02:10:51;;;;;;;3.92;2.90;;;19.90;89.40;;;;;;5094026;28;20373;-79
2023/09/10 02:13:17;;;;;;;4.28;3.10;;;19.90;89.40;;;;;;5077333;28;20035;-78
2023/09/10 02:15:43;;;;;;;3.47;2.88;;;19.90;89.40;;;;;;5077283;28;20404;-78
2023/09/10 02:18:08;;;;;;;4.50;3.35;;;19.90;89.40;;;;;;5113233;28;20389;-78
2023/09/10 02:20:36;;;;;;;4.30;3.40;;;19.90;89.30;;;;;;5097552;28;20477;-78
2023/09/10 02:23:02;;;;;;;3.85;2.83;;;19.90;89.30;;;;;;5115990;28;20040;-78
2023/09/10 02:25:28;;;;;;;3.33;2.53;;;19.90;89.30;;;;;;5116394;28;20059;-78
2023/09/10 02:27:54;;;;;;;3.72;2.65;;;19.90;89.40;;;;;;5115775;28;20039;-79
2023/09/10 02:30:20;;;;;;;3.88;2.97;;;19.90;89.40;;;;;;5097391;28;20039;-78
2023/09/10 02:32:46;;;;;;;3.80;3.00;;;19.80;89.50;;;;;;5097853;28;20036;-78
2023/09/10 02:35:11;;;;;;;3.55;2.78;;;19.80;89.60;;;;;;5115363;28;20036;-78
2023/09/10 02:37:37;;;;;;;4.32;3.00;;;19.70;89.70;;;;;;5097694;28;20043;-78
2023/09/10 02:40:06;;;;;;;3.83;2.90;;;19.70;89.80;;;;;;5097859;28;20042;-78
2023/09/10 02:42:32;;;;;;;5.13;3.35;;;19.70;89.80;;;;;;5115568;28;20097;-78
2023/09/10 02:44:58;;;;;;;4.45;3.25;;;19.60;89.90;;;;;;5115626;28;20566;-78
2023/09/10 02:47:25;;;;;;;4.05;3.00;;;19.60;90.00;;;;;;5080723;28;20035;-78
2023/09/10 02:49:50;;;;;;;4.03;2.95;;;19.60;90.00;;;;;;5080285;28;20382;-78
2023/09/10 02:52:16;;;;;;;3.63;2.72;;;19.60;90.30;;;;;;5115604;28;20126;-78
2023/09/10 02:54:42;;;;;;;3.53;2.63;;;19.60;90.00;;;;;;5115337;28;20130;-78
2023/09/10 02:57:10;;;;;;;4.13;2.95;;;19.50;90.00;;;;;;5115452;28;20039;-78
2023/09/10 02:59:35;;;;;;;4.05;3.03;;;19.60;90.00;;;;;;5115413;28;20043;-78
2023/09/10 03:02:01;;;;;;;3.80;2.80;;;19.50;90.00;;;;;;5097163;28;20035;-78
2023/09/10 03:04:27;;;;;;;3.60;2.60;;;19.60;90.00;;;;;;5115125;28;20485;-78
2023/09/10 03:06:52;;;;;;;3.65;2.65;;;19.60;90.00;;;;;;5080117;28;20050;-78
2023/09/10 03:09:18;;;;;;;3.72;2.70;;;19.60;90.00;;;;;;5097459;28;20039;-78
2023/09/10 03:11:46;;;;;;;3.58;2.78;;;19.60;90.30;;;;;;5096817;28;20409;-78
2023/09/10 03:14:12;;;;;;;3.33;2.63;;;19.60;90.00;;;;;;5096691;28;20043;-78
2023/09/10 03:16:39;;;;;;;3.28;2.58;;;19.60;90.00;;;;;;5096758;28;20327;-78
2023/09/10 03:19:05;;;;;;;3.47;2.70;;;19.60;90.00;;;;;;5096870;28;20130;-78
2023/09/10 03:21:30;;;;;;;3.47;2.72;;;19.60;90.00;;;;;;5115317;28;20489;-78
2023/09/10 03:23:57;;;;;;;4.28;3.20;;;19.60;90.00;;;;;;5114997;28;20028;-78
2023/09/10 03:26:23;;;;;;;4.05;2.90;;;19.60;90.00;;;;;;5114829;28;20092;-78
2023/09/10 03:28:49;;;;;;;4.00;2.67;;;19.60;90.00;;;;;;5114315;28;20028;-78
2023/09/10 03:31:14;;;;;;;3.45;2.50;;;19.60;90.00;;;;;;5079812;28;20062;-79
2023/09/10 03:33:41;;;;;;;3.17;2.65;;;19.50;90.00;;;;;;5115194;28;20078;-78
2023/09/10 03:36:09;;;;;;;3.67;2.92;;;19.50;90.00;;;;;;5115132;28;20122;-78
2023/09/10 03:38:35;;;;;;;4.35;2.92;;;19.50;90.00;;;;;;5115206;28;20048;-78
2023/09/10 03:41:01;;;;;;;3.63;2.63;;;19.50;90.00;;;;;;5114916;28;20047;-78
2023/09/10 03:43:26;;;;;;;3.80;3.00;;;19.50;90.00;;;;;;5114489;28;20097;-78
2023/09/10 03:45:52;;;;;;;4.03;3.10;;;19.50;90.00;;;;;;5114571;28;20558;-78
2023/09/10 03:48:18;;;;;;;4.82;3.30;;;19.50;90.10;;;;;;5062594;28;20062;-78
2023/09/10 03:50:43;;;;;;;4.65;3.00;;;19.40;90.00;;;;;;5096436;28;20092;-78
2023/09/10 03:53:09;;;;;;;2.97;2.50;;;19.40;90.00;;;;;;5115087;28;20054;-78
2023/09/10 03:55:35;;;;;;;3.55;3.05;;;19.40;90.10;;;;;;5114426;28;20484;-78
2023/09/10 03:58:01;;;;;;;4.38;3.13;;;19.40;90.10;;;;;;5079300;28;20116;-78
2023/09/10 04:00:27;;;;;;;4.20;3.03;;;19.40;90.10;;;;;;5095995;28;20485;-79
2023/09/10 04:02:52;;;;;;;4.63;3.17;;;19.40;90.10;;;;;;5079388;28;20031;-78
2023/09/10 04:05:18;;;;;;;4.25;3.30;;;19.40;90.10;;;;;;5096301;28;20420;-78
2023/09/10 04:07:44;;;;;;;3.88;2.88;;;19.30;90.10;;;;;;5096122;28;20040;-78
2023/09/10 04:10:10;;;;;;;5.07;3.53;;;19.30;90.10;;;;;;5114779;28;20038;-78
2023/09/10 04:12:37;;;;;;;4.38;3.20;;;19.30;90.10;;;;;;5096458;28;20043;-78
2023/09/10 04:15:04;;;;;;;3.78;3.03;;;19.30;90.10;;;;;;5096582;28;20043;-78
2023/09/10 04:17:30;;;;;;;5.05;3.45;;;19.30;90.10;;;;;;5113979;28;20494;-78
2023/09/10 04:19:57;;;;;;;4.38;3.25;;;19.30;90.10;;;;;;5114110;28;20120;-78
2023/09/10 04:22:24;;;;;;;3.70;2.97;;;19.30;90.10;;;;;;5114597;28;20077;-78
2023/09/10 04:24:49;;;;;;;5.30;3.95;;;19.30;90.10;;;;;;5095886;28;20046;-78
2023/09/10 04:27:15;;;;;;;4.15;2.95;;;19.30;90.10;;;;;;5114403;28;20031;-78
2023/09/10 04:29:41;;;;;;;4.03;2.97;;;19.30;90.10;;;;;;5095514;28;20543;-79
2023/09/10 04:32:07;;;;;;;5.10;3.83;;;19.30;90.10;;;;;;5096246;28;20051;-78
2023/09/10 04:34:32;;;;;;;4.57;3.35;;;19.30;90.10;;;;;;5114439;28;20150;-78
2023/09/10 04:36:58;;;;;;;4.15;3.20;;;19.30;90.10;;;;;;5062170;28;20107;-78
2023/09/10 04:39:24;;;;;;;3.83;2.60;;;19.30;90.10;;;;;;5096023;28;20036;-79
2023/09/10 04:41:50;;;;;;;3.97;3.13;;;19.30;90.10;;;;;;5094830;28;20126;-78
2023/09/10 04:44:16;;;;;;;3.67;2.90;;;19.30;90.10;;;;;;5078793;28;20127;-78
2023/09/10 04:46:41;;;;;;;3.67;2.70;;;19.30;90.10;;;;;;5095639;28;20054;-78
2023/09/10 04:49:07;;;;;;;4.35;2.90;;;19.30;90.10;;;;;;5114433;28;20481;-78
2023/09/10 04:51:33;;;;;;;4.78;3.55;;;19.30;90.10;;;;;;5095652;28;20483;-77
2023/09/10 04:53:59;;;;;;;4.93;3.70;;;19.20;90.10;;;;;;5095923;28;20044;-78
2023/09/10 04:56:25;;;;;;;5.20;3.88;;;19.20;90.10;;;;;;5095090;28;20048;-78
2023/09/10 04:58:50;;;;;;;5.40;3.85;;;19.20;90.10;;;;;;5095205;28;20035;-78
2023/09/10 05:01:16;;;;;;;4.75;3.40;;;19.30;90.20;;;;;;5113337;28;20073;-78
2023/09/10 05:03:42;;;;;;;5.28;3.80;;;19.20;90.20;;;;;;5095687;28;20469;-78
2023/09/10 05:06:08;;;;;;;4.47;3.47;;;19.20;90.20;;;;;;5114179;28;20040;-78
2023/09/10 05:08:34;;;;;;;4.80;3.80;;;19.20;90.20;;;;;;5078228;28;20047;-78
2023/09/10 05:11:00;;;;;;;4.05;3.00;;;19.20;90.20;;;;;;5095539;28;20488;-78
2023/09/10 05:13:26;;;;;;;6.03;4.45;;;19.10;90.20;;;;;;5113560;28;20100;-78
2023/09/10 05:15:57;;;;;;;4.70;3.83;;;19.20;90.20;;;;;;5078290;28;20050;-78
2023/09/10 05:18:24;;;;;;;5.70;4.10;;;19.10;90.50;;;;;;5095697;28;20040;-78
2023/09/10 05:20:50;;;;;;;5.53;4.25;;;19.10;90.20;;;;;;5095040;28;20061;-78
2023/09/10 05:23:16;;;;;;;4.35;3.55;;;19.20;90.20;;;;;;5094907;28;20115;-78
2023/09/10 05:25:41;;;;;;;5.18;3.85;;;19.10;90.20;;;;;;5113239;28;20040;-78
2023/09/10 05:28:07;;;;;;;4.88;3.75;;;19.10;90.20;;;;;;5061245;28;20044;-78
2023/09/10 05:30:37;;;;;;;4.63;3.30;;;19.10;90.50;;;;;;5094960;28;20109;-78
2023/09/10 05:33:03;;;;;;;5.05;3.75;;;19.10;90.20;;;;;;5095156;28;20043;-78
2023/09/10 05:35:29;;;;;;;4.95;3.90;;;19.10;90.20;;;;;;5095221;28;20485;-78
2023/09/10 05:37:55;;;;;;;4.47;3.35;;;19.10;90.20;;;;;;5095195;28;20112;-78
2023/09/10 05:40:20;;;;;;;5.10;3.70;;;19.20;90.20;;;;;;5113025;28;20039;-79
2023/09/10 05:42:46;;;;;;;5.13;3.75;;;19.20;90.20;;;;;;5113212;28;20047;-78
2023/09/10 05:45:12;;;;;;;4.40;3.33;;;19.20;90.20;;;;;;5112999;28;20028;-78
2023/09/10 05:47:37;;;;;;;4.65;3.70;;;19.20;90.20;;;;;;5112670;28;20493;-78
2023/09/10 05:50:04;;;;;;;3.92;3.17;;;19.30;90.10;;;;;;5077706;28;20401;-78
2023/09/10 05:52:30;;;;;;;4.78;3.83;;;19.30;90.10;;;;;;5094695;28;20078;-78
2023/09/10 05:54:55;;;;;;;6.60;4.20;;;19.30;90.10;;;;;;5077577;28;20071;-78
2023/09/10 05:57:21;;;;;;;5.25;3.80;;;19.30;90.00;;;;;;5077430;28;20036;-78
2023/09/10 05:59:47;;;;;;;5.10;3.85;;;19.30;90.00;;;;;;5094744;28;20489;-78
2023/09/10 06:02:13;;;;;;;4.55;3.28;;;19.40;90.00;;;;;;5094430;28;20397;-78
2023/09/10 06:04:38;;;;;;;3.83;3.05;;;19.40;90.00;;;;;;5094941;28;20494;-78
2023/09/10 06:07:04;;;;;;;5.03;3.70;;;19.40;90.00;;;;;;5077674;28;20517;-78
2023/09/10 06:09:31;;;;;;;5.18;3.80;;;19.40;90.00;;;;;;5112865;28;20413;-78
2023/09/10 06:11:57;;;;;;;4.53;3.35;;;19.40;90.00;;;;;;5112763;28;20493;-78
2023/09/10 06:14:23;;;;;;;5.07;3.65;;;19.50;90.00;;;;;;5112946;28;20570;-78
2023/09/10 06:16:49;;;;;;;4.65;3.47;;;19.50;90.00;;;;;;5094403;28;20065;-78
2023/09/10 06:19:15;;;;;;;4.13;3.28;;;19.50;89.90;;;;;;5112662;28;20036;-78
2023/09/10 06:21:41;;;;;;;4.15;3.30;;;19.50;89.90;;;;;;5112343;28;20117;-78
2023/09/10 06:24:07;;;;;;;3.83;3.10;;;19.60;89.90;;;;;;5094212;28;20043;-78
2023/09/10 06:26:34;;;;;;;8.02;5.20;;;19.60;89.80;;;;;;5094028;28;20119;-78
2023/09/10 06:29:00;;;;;;;4.60;3.38;;;19.70;89.90;;;;;;5112519;28;20069;-78
2023/09/10 06:31:26;;;;;;;5.53;3.47;;;19.70;89.80;;;;;;5094441;28;20042;-78
2023/09/10 06:33:54;;;;;;;6.78;4.88;;;19.70;89.60;;;;;;5094229;28;20043;-78
2023/09/10 06:36:20;;;;;;;4.95;3.75;;;19.80;89.60;;;;;;5112254;28;20122;-78
2023/09/10 06:38:47;;;;;;;4.60;3.47;;;19.80;89.50;;;;;;5112110;28;20108;-78
2023/09/10 06:41:15;;;;;;;5.85;4.30;;;19.90;89.50;;;;;;5112180;28;20036;-79
2023/09/10 06:43:41;;;;;;;6.18;4.15;;;19.90;89.40;;;;;;5112185;28;20390;-78
2023/09/10 06:46:07;;;;;;;6.65;5.13;;;20.00;89.40;;;;;;5093875;28;20096;-78
2023/09/10 06:48:33;;;;;;;5.20;4.03;;;20.00;89.30;;;;;;5093842;28;20043;-79
2023/09/10 06:51:00;;;;;;;4.43;3.42;;;20.10;89.30;;;;;;5094165;28;20036;-79
2023/09/10 06:53:28;;;;;;;5.25;4.00;;;20.10;89.20;;;;;;5094179;28;20043;-78
2023/09/10 06:55:54;;;;;;;5.65;4.22;;;20.20;89.90;;;;;;5076898;28;20101;-78
2023/09/10 06:58:20;;;;;;;4.00;3.03;;;20.20;89.20;;;;;;5093987;28;20044;-78
2023/09/10 07:00:47;;;;;;;4.70;3.22;;;20.20;89.20;;;;;;5111751;28;20043;-78
2023/09/10 07:03:13;;;;;;;3.50;2.70;;;20.30;89.10;;;;;;5093664;28;20063;-78
2023/09/10 07:05:40;;;;;;;4.28;3.13;;;20.30;89.00;;;;;;5079637;28;20481;-78
2023/09/10 07:08:08;;;;;;;4.63;2.95;;;20.40;89.10;;;;;;5097158;28;20085;-78
2023/09/10 07:10:34;;;;;;;5.47;4.35;;;20.50;89.10;;;;;;5080088;28;20039;-78
2023/09/10 07:13:05;;;;;;;5.60;4.20;;;20.50;89.00;;;;;;5097169;28;20044;-79
2023/09/10 07:15:32;;;;;;;4.35;3.15;;;20.60;88.90;;;;;;5097472;28;20044;-78
2023/09/10 07:17:58;;;;;;;4.43;3.30;;;20.60;88.80;;;;;;5097559;28;20130;-78
2023/09/10 07:20:24;;;;;;;4.22;3.03;;;20.60;88.70;;;;;;5115729;28;20031;-78
2023/09/10 07:22:50;;;;;;;4.82;3.72;;;20.70;88.70;;;;;;5063390;28;20534;-78
2023/09/10 07:25:15;;;;;;;6.40;4.32;;;20.80;88.70;;;;;;5097711;28;20043;-77
2023/09/10 07:27:41;;;;;;;4.72;3.53;;;20.80;88.80;;;;;;5080340;28;20036;-77
2023/09/10 07:30:07;;;;;;;4.32;3.63;;;20.80;88.70;;;;;;5114925;28;20500;-78
2023/09/10 07:32:33;;;;;;;5.40;3.90;;;20.90;88.70;;;;;;5097051;28;20489;-78
2023/09/10 07:34:59;;;;;;;5.15;3.92;;;21.00;88.60;;;;;;5115912;28;20044;-79
2023/09/10 07:37:24;;;;;;;4.30;3.30;;;21.00;88.60;;;;;;5080831;28;20158;-79
2023/09/10 07:39:50;;;;;;;5.07;3.92;;;21.10;88.50;;;;;;5080472;28;20473;-78
2023/09/10 07:42:16;;;;;;;5.38;4.00;;;21.20;88.50;;;;;;5097875;28;20039;-77
2023/09/10 07:44:42;;;;;;;5.20;4.07;;;21.20;88.40;;;;;;5096491;28;20047;-77
2023/09/10 07:47:09;;;;;;;4.80;3.65;;;21.30;88.40;;;;;;5063516;28;20118;-78
2023/09/10 07:49:35;;;;;;;5.43;4.07;;;21.30;88.30;;;;;;5115871;28;20040;-78
2023/09/10 07:52:04;;;;;;;5.00;4.07;;;21.40;88.30;;;;;;5079972;28;20032;-77
2023/09/10 07:54:30;;;;;;;4.75;3.75;;;21.50;88.30;;;;;;5097092;28;20042;-78
2023/09/10 07:56:56;;;;;;;5.00;3.75;;;21.50;88.30;;;;;;5097156;28;20084;-77
2023/09/10 07:59:22;;;;;;;4.88;3.88;;;21.50;88.20;;;;;;5096481;28;20122;-77
2023/09/10 08:01:55;;;;;;;5.05;3.80;;;21.60;88.30;;;;;;5062676;28;20080;-78
2023/09/10 08:04:28;;;;;;;5.40;4.38;;;21.70;88.30;;;;;;5078632;28;20050;-78
2023/09/10 08:07:00;;;;;;;4.45;3.58;;;21.70;88.10;;;;;;5053489;28;20469;-78
2023/09/10 08:09:42;;;;;;;4.90;3.80;;;21.80;88.10;;;;;;4998935;28;20090;-77
2023/09/10 08:12:19;;;;;;;4.60;3.42;;;21.90;88.00;;;;;;4960711;28;20046;-77
2023/09/10 08:14:51;;;;;;;4.40;3.40;;;22.10;87.90;;;;;;4945903;28;20042;-77
2023/09/10 08:17:44;;;;;;;7.20;5.35;;;22.20;87.80;;;;;;4959463;28;20050;-77
2023/09/10 08:24:42;;;;;;;6.03;4.22;;;22.50;87.60;;;;;;4953370;28;20409;-77
2023/09/10 08:27:13;;;;;;;4.43;3.50;;;22.60;87.40;;;;;;4943318;28;20042;-78
2023/09/10 08:29:39;;;;;;;5.03;3.85;;;22.70;87.40;;;;;;4953351;29;20493;-77
2023/09/10 08:32:06;;;;;;;5.68;4.15;;;22.80;87.20;;;;;;4953765;29;20047;-77
2023/09/10 08:34:32;;;;;;;5.45;4.03;;;23.00;87.10;;;;;;4965795;28;20038;-77
2023/09/10 08:36:57;;;;;;;5.38;3.88;;;23.10;87.00;;;;;;5004413;28;20368;-77
2023/09/10 08:39:23;;;;;;;7.45;5.68;;;23.30;86.80;;;;;;5034804;28;20055;-78
2023/09/10 08:42:01;;;;;;;4.85;3.80;;;23.30;86.60;;;;;;5001406;28;20131;-77
2023/09/10 08:44:29;;;;;;;6.00;4.47;;;23.40;86.50;;;;;;5074983;28;20043;-78
2023/09/10 08:47:00;;;;;;;6.70;5.25;;;23.50;86.40;;;;;;5095803;28;20054;-77
2023/09/10 08:49:27;;;;;;;;;;;23.70;86.30;;;;;;5063317;28;20063;-78
2023/09/10 08:51:53;;;;;;;4.90;3.88;;;23.90;86.20;;;;;;5117213;27;19927;-77
2023/09/10 08:54:19;;;;;;;5.25;3.67;;;24.00;86.10;;;;;;5081459;28;20047;-77
2023/09/10 08:56:48;;;;;;;4.68;3.63;;;24.00;86.00;;;;;;5114213;28;20076;-77
2023/09/10 08:59:15;;;;;;;4.13;3.28;;;24.20;85.90;;;;;;5114116;28;20027;-78
2023/09/10 09:01:44;;;;;;;4.78;3.17;;;24.30;85.80;;;;;;5113638;28;20080;-77
2023/09/10 09:04:12;;;;;;;4.55;3.70;;;24.40;85.70;;;;;;5095175;28;20115;-77
2023/09/10 09:06:43;;;;;;;4.95;3.50;;;24.40;85.60;;;;;;5113787;28;20128;-77
2023/09/10 09:09:10;;;;;;;;;;;24.60;85.60;;;;;;5097484;28;21906;-76
2023/09/10 09:11:37;;;;;;;4.20;3.13;;;24.60;85.50;;;;;;5120154;28;20422;-77
2023/09/10 09:14:07;;;;;;;4.30;2.95;;;24.70;85.50;;;;;;5069934;28;20035;-76
2023/09/10 09:16:34;;;;;;;3.80;3.15;;;24.80;85.40;;;;;;5095374;28;20042;-77
2023/09/10 09:19:10;;;;;;;5.50;3.58;;;24.90;85.40;;;;;;5085493;28;20043;-77
2023/09/10 09:21:39;;;;;;;5.75;4.13;;;24.90;85.30;;;;;;5096376;28;20065;-78
2023/09/10 09:24:06;;;;;;;5.00;3.88;;;25.00;85.10;;;;;;5135307;28;20038;-77
2023/09/10 09:26:33;;;;;;;4.50;3.38;;;25.10;85.20;;;;;;5097405;28;20046;-77
2023/09/10 09:29:00;;;;;;;5.03;3.83;;;25.10;85.10;;;;;;5128057;28;20035;-78
2023/09/10 09:31:26;;;;;;;4.65;3.25;;;25.10;85.10;;;;;;5094710;28;20048;-78
2023/09/10 09:33:52;;;;;;;4.82;3.45;;;25.20;85.10;;;;;;5070517;28;20040;-76
2023/09/10 09:36:18;;;;;;;5.68;3.85;;;25.30;85.10;;;;;;5100592;28;20095;-76
2023/09/10 09:38:46;;;;;;;4.85;3.53;;;25.30;85.10;;;;;;5097836;28;20074;-76
2023/09/10 09:41:14;;;;;;;6.03;4.50;;;25.40;85.00;;;;;;5079887;28;20043;-76
2023/09/10 09:43:40;;;;;;;5.15;3.40;;;25.50;85.00;;;;;;5083766;28;20083;-76
2023/09/10 09:46:05;;;;;;;4.50;3.60;;;25.40;84.80;;;;;;5074977;28;20057;-76
2023/09/10 09:48:32;;;;;;;4.30;3.45;;;25.50;84.70;;;;;;5089996;28;20081;-79
2023/09/10 09:50:58;;;;;;;3.65;2.85;;;25.60;84.60;;;;;;5070115;28;20086;-76
2023/09/10 09:53:27;;;;;;;6.97;4.45;;;25.70;84.60;;;;;;5121970;28;20028;-77
2023/09/10 09:55:56;;;;;;;4.57;3.50;;;25.70;84.50;;;;;;5068891;28;20122;-76
2023/09/10 09:58:22;;;;;;;4.10;3.30;;;25.80;84.40;;;;;;5083604;28;20032;-77
2023/09/10 10:00:48;;;;;;;3.97;3.25;;;25.60;84.20;;;;;;5111098;28;20048;-79
2023/09/10 10:03:16;;;;;;;4.35;3.50;;;25.80;84.30;;;;;;5114205;28;20070;-78
2023/09/10 10:05:42;;;;;;;5.30;3.22;;;25.80;84.20;;;;;;5081113;28;20051;-79
2023/09/10 10:08:08;;;;;;;4.30;3.17;;;25.80;84.20;;;;;;5298518;22;20411;-79
2023/09/10 10:10:48;;;;;;;4.10;3.13;;;25.80;84.10;;;;;;5076757;28;20039;-79
2023/09/10 10:13:18;;;;;;;5.18;3.05;;;25.80;84.70;;;;;;5070270;28;20033;-81
2023/09/10 10:15:47;;;;;;;4.10;3.17;;;25.80;84.10;;;;;;5073339;28;20049;-80
2023/09/10 10:18:15;;;;;;;5.07;3.47;;;25.90;84.00;;;;;;5072766;28;20053;-80
2023/09/10 10:20:47;;;;;;;4.50;3.10;;;25.90;83.90;;;;;;5074486;28;20033;-77
2023/09/10 10:23:14;;;;;;;3.70;2.92;;;25.90;83.80;;;;;;5077135;28;20040;-77
2023/09/10 10:25:42;;;;;;;3.33;2.80;;;25.90;83.80;;;;;;5075353;28;20121;-77
2023/09/10 10:28:09;;;;;;;3.35;2.70;;;25.90;83.80;;;;;;5075773;28;20127;-77
2023/09/10 10:30:48;;;;;;;3.75;2.75;;;26.00;83.80;;;;;;5078805;28;20036;-77
2023/09/10 10:33:17;;;;;;;3.55;2.60;;;26.00;83.70;;;;;;5079691;28;20422;-78
2023/09/10 10:35:57;;;;;;;3.00;2.50;;;26.10;83.80;;;;;;5058318;28;20501;-77
2023/09/10 10:38:24;;;;;;;3.67;2.40;;;26.10;84.20;;;;;;5076759;28;20052;-78
2023/09/10 10:40:54;;;;;;;3.03;2.38;;;26.10;83.40;;;;;;5060694;28;20097;-77
2023/09/10 10:43:25;;;;;;;3.00;2.33;;;26.10;83.30;;;;;;5080890;28;20102;-77
2023/09/10 10:45:54;;;;;;;3.60;2.70;;;26.10;83.10;;;;;;5064328;28;20047;-78
2023/09/10 10:48:24;;;;;;;3.80;2.47;;;26.20;83.10;;;;;;5080495;28;20037;-79
2023/09/10 10:50:53;;;;;;;3.28;2.42;;;26.10;82.90;;;;;;5080659;28;20045;-77
2023/09/10 10:53:23;;;;;;;3.30;2.65;;;26.30;82.90;;;;;;5063997;28;20044;-78
2023/09/10 10:55:51;;;;;;;3.40;2.53;;;26.30;82.70;;;;;;5079043;28;20036;-78
2023/09/10 10:58:18;;;;;;;3.72;2.85;;;26.20;82.50;;;;;;5084134;28;20051;-78
2023/09/10 11:00:50;;;;;;;3.47;2.65;;;26.30;82.40;;;;;;5064422;28;20045;-77
2023/09/10 11:03:16;;;;;;;2.67;2.20;;;26.30;82.20;;;;;;5063225;28;20044;-77
2023/09/10 11:06:08;;;;;;;3.30;2.40;;;26.50;82.10;;;;;;5059285;28;20101;-78
2023/09/10 11:08:37;;;;;;;3.45;2.55;;;26.50;82.00;;;;;;5076812;28;20041;-77
2023/09/10 11:11:06;;;;;;;3.60;2.30;;;26.50;81.90;;;;;;5075152;28;20070;-77
2023/09/10 11:13:32;;;;;;;3.40;2.50;;;26.60;81.90;;;;;;5060731;28;20075;-77
2023/09/10 11:16:18;;;;;;;3.25;2.40;;;26.60;81.70;;;;;;5078843;28;20471;-78
2023/09/10 11:18:43;;;;;;;6.35;2.95;;;26.70;81.60;;;;;;5075668;28;20040;-77
2023/09/10 11:21:15;;;;;;;3.92;2.60;;;26.60;81.40;;;;;;5075935;28;20399;-77
2023/09/10 11:24:10;;;;;;;3.13;2.40;;;26.80;81.20;;;;;;5078071;28;20048;-79
2023/09/10 11:26:36;;;;;;;2.88;2.10;;;26.90;81.00;;;;;;5077467;28;20043;-78
2023/09/10 11:29:04;;;;;;;2.60;2.03;;;26.90;80.80;;;;;;5075235;28;20134;-78
2023/09/10 11:31:38;;;;;;;2.85;2.05;;;26.90;80.60;;;;;;5056602;28;20032;-77
2023/09/10 11:34:34;;;;;;;2.47;2.20;;;27.00;80.50;;;;;;5064753;28;20039;-78
2023/09/10 11:37:03;;;;;;;3.15;1.98;;;27.10;80.50;;;;;;5073627;28;20052;-79
2023/09/10 11:39:30;;;;;;;2.50;2.20;;;27.10;80.30;;;;;;5056089;28;20044;-79
2023/09/10 11:41:58;;;;;;;3.15;2.22;;;27.20;80.20;;;;;;5074810;28;20048;-80
2023/09/10 11:44:24;;;;;;;3.45;2.47;;;27.30;80.10;;;;;;5073524;28;20469;-79
2023/09/10 11:46:52;;;;;;;3.38;2.10;;;27.30;79.90;;;;;;5073275;28;20071;-80
2023/09/10 11:49:20;;;;;;;2.78;2.20;;;27.40;79.70;;;;;;5074192;28;20041;-79
2023/09/10 11:51:49;;;;;;;2.80;2.08;;;27.50;79.60;;;;;;5073745;28;20044;-79
2023/09/10 11:54:16;;;;;;;3.20;2.15;;;27.60;79.40;;;;;;5074013;28;20494;-79
2023/09/10 11:56:44;;;;;;;2.63;2.03;;;27.70;79.20;;;;;;5072879;28;20067;-79
2023/09/10 11:59:10;;;;;;;3.33;2.38;;;27.70;79.00;;;;;;5056209;28;20043;-78
2023/09/10 12:01:36;;;;;;;2.28;2.00;;;27.80;78.90;;;;;;5056400;28;20059;-77
2023/09/10 12:04:02;;;;;;;2.40;1.90;;;27.90;78.70;;;;;;5074147;28;20080;-76
2023/09/10 12:06:27;;;;;;;2.00;1.80;;;28.00;78.70;;;;;;5073414;28;20048;-78
2023/09/10 12:08:54;;;;;;;4.35;2.47;;;28.00;78.60;;;;;;5073267;28;20058;-78
2023/09/10 12:11:20;;;;;;;2.72;2.30;;;28.00;78.40;;;;;;5072458;28;20037;-77
2023/09/10 12:13:46;;;;;;;2.47;2.10;;;28.10;78.30;;;;;;5073208;28;20124;-77
2023/09/10 12:16:13;;;;;;;2.97;2.45;;;28.10;78.30;;;;;;5073828;28;20040;-78
2023/09/10 12:18:39;;;;;;;2.78;2.20;;;28.10;78.20;;;;;;5054159;28;20076;-78
2023/09/10 12:21:05;;;;;;;3.13;2.35;;;28.20;78.10;;;;;;5072527;28;20097;-78
2023/09/10 12:23:32;;;;;;;2.40;1.95;;;28.20;77.90;;;;;;5073603;28;20040;-77
2023/09/10 12:25:59;;;;;;;2.15;1.95;;;28.30;77.90;;;;;;5073635;28;20041;-78
2023/09/10 12:28:25;;;;;;;2.83;2.25;;;28.30;77.90;;;;;;5068543;28;20048;-76
2023/09/10 12:30:52;;;;;;;2.67;2.10;;;28.30;77.80;;;;;;5072306;28;20494;-77
2023/09/10 12:33:20;;;;;;;2.38;2.00;;;28.40;77.70;;;;;;5073811;28;20131;-78
2023/09/10 12:35:46;;;;;;;2.65;2.20;;;28.40;77.60;;;;;;5073501;28;20064;-76
2023/09/10 12:38:16;;;;;;;2.53;1.90;;;28.40;77.70;;;;;;5072106;28;20044;-77
2023/09/10 12:40:42;;;;;;;2.38;2.15;;;28.40;77.80;;;;;;5072155;28;20051;-75
2023/09/10 12:43:08;;;;;;;2.35;2.10;;;28.40;77.80;;;;;;5072085;28;20051;-75
2023/09/10 12:45:35;;;;;;;2.60;2.20;;;28.30;77.80;;;;;;5071992;28;20393;-76
2023/09/10 12:48:02;;;;;;;2.13;1.90;;;28.40;77.70;;;;;;5073357;28;20045;-76
2023/09/10 12:50:28;;;;;;;2.10;1.90;;;28.50;77.60;;;;;;5073344;28;20486;-77
2023/09/10 12:52:55;;;;;;;2.85;2.15;;;28.50;77.60;;;;;;5073921;28;20435;-76
2023/09/10 12:55:22;;;;;;;2.03;1.85;;;28.50;77.60;;;;;;5073722;28;20478;-76